Terminal Aerodrome Forecast
Issued by NWS

Home | Current Version | Previous Version | Text Only | Print | Product List | Glossary On
Versions: 1 2 3 4 5 6 7 8 9 10 11 12 13 14 15 16 17 18
000
FTUS46 KLOX 212300 RRA
TAFLGB
TAF
KLGB 212345Z 2200/2224 29008KT P6SM SKC
     FM220400 VRB03KT P6SM SCT012
     FM220700 VRB03KT P6SM OVC014
     FM221600 17005KT P6SM FEW019
     FM222200 29009KT P6SM SKC=

USA.gov is the U.S. government's official web portal to all federal, state and local government web resources and services.